sensor_id;sensor_type;location;lat;lon;timestamp;pressure;altitude;pressure_sealevel;temperature;humidity
72636;BME280;60679;48.888;15.544;2022-12-18T00:01:05;97505.34;;;-8.59;nan
72636;BME280;60679;48.888;15.544;2022-12-18T00:03:35;97505.09;;;-8.55;nan
72636;BME280;60679;48.888;15.544;2022-12-18T00:06:01;97517.88;;;-8.49;nan
72636;BME280;60679;48.888;15.544;2022-12-18T00:08:27;97510.03;;;-8.49;nan
72636;BME280;60679;48.888;15.544;2022-12-18T00:10:53;97517.25;;;-8.54;nan
72636;BME280;60679;48.888;15.544;2022-12-18T00:13:18;97515.41;;;-8.69;nan
72636;BME280;60679;48.888;15.544;2022-12-18T00:15:44;97519.41;;;-8.79;nan
72636;BME280;60679;48.888;15.544;2022-12-18T00:18:09;97517.69;;;-8.80;nan
72636;BME280;60679;48.888;15.544;2022-12-18T00:20:38;97515.09;;;-8.80;nan
72636;BME280;60679;48.888;15.544;2022-12-18T00:23:05;97519.16;;;-8.74;nan
72636;BME280;60679;48.888;15.544;2022-12-18T00:25:35;97524.09;;;-8.68;nan
72636;BME280;60679;48.888;15.544;2022-12-18T00:28:02;97517.94;;;-8.67;nan
72636;BME280;60679;48.888;15.544;2022-12-18T00:30:28;97522.44;;;-8.69;nan
72636;BME280;60679;48.888;15.544;2022-12-18T00:32:53;97515.78;;;-8.76;nan
72636;BME280;60679;48.888;15.544;2022-12-18T00:35:18;97528.47;;;-8.86;nan
72636;BME280;60679;48.888;15.544;2022-12-18T00:37:43;97528.97;;;-8.97;nan
72636;BME280;60679;48.888;15.544;2022-12-18T00:40:09;97533.25;;;-9.13;nan
72636;BME280;60679;48.888;15.544;2022-12-18T00:42:35;97526.50;;;-9.35;nan
72636;BME280;60679;48.888;15.544;2022-12-18T00:45:19;97526.56;;;-9.56;nan
72636;BME280;60679;48.888;15.544;2022-12-18T00:47:45;97536.41;;;-9.61;nan
72636;BME280;60679;48.888;15.544;2022-12-18T00:50:10;97546.50;;;-9.53;nan
72636;BME280;60679;48.888;15.544;2022-12-18T00:52:35;97541.97;;;-9.50;nan
72636;BME280;60679;48.888;15.544;2022-12-18T00:55:01;97540.72;;;-9.60;nan
72636;BME280;60679;48.888;15.544;2022-12-18T00:57:26;97550.91;;;-9.92;nan
72636;BME280;60679;48.888;15.544;2022-12-18T00:59:51;97079.72;;;-12.81;nan
72636;BME280;60679;48.888;15.544;2022-12-18T01:02:17;97539.69;;;-10.13;nan
72636;BME280;60679;48.888;15.544;2022-12-18T01:04:42;97547.25;;;-10.27;nan
72636;BME280;60679;48.888;15.544;2022-12-18T01:07:07;97548.56;;;-10.37;nan
72636;BME280;60679;48.888;15.544;2022-12-18T01:09:33;97555.94;;;-10.47;nan
72636;BME280;60679;48.888;15.544;2022-12-18T01:11:59;97552.72;;;-10.53;nan
72636;BME280;60679;48.888;15.544;2022-12-18T01:14:24;97553.25;;;-10.45;nan
72636;BME280;60679;48.888;15.544;2022-12-18T01:16:50;97563.09;;;-10.32;nan
72636;BME280;60679;48.888;15.544;2022-12-18T01:19:15;97564.25;;;-10.19;nan
72636;BME280;60679;48.888;15.544;2022-12-18T01:21:40;97566.75;;;-10.16;nan
72636;BME280;60679;48.888;15.544;2022-12-18T01:24:06;97573.06;;;-10.21;nan
72636;BME280;60679;48.888;15.544;2022-12-18T01:26:32;97576.84;;;-10.48;nan
72636;BME280;60679;48.888;15.544;2022-12-18T01:28:58;97574.09;;;-10.66;nan
72636;BME280;60679;48.888;15.544;2022-12-18T01:31:29;97571.41;;;-10.84;nan
72636;BME280;60679;48.888;15.544;2022-12-18T01:33:55;97572.13;;;-11.02;nan
72636;BME280;60679;48.888;15.544;2022-12-18T01:36:22;97579.28;;;-11.07;nan
72636;BME280;60679;48.888;15.544;2022-12-18T01:38:49;97588.63;;;-11.24;nan
72636;BME280;60679;48.888;15.544;2022-12-18T01:41:17;97592.88;;;-11.44;nan
72636;BME280;60679;48.888;15.544;2022-12-18T01:46:11;97605.34;;;-11.74;nan
72636;BME280;60679;48.888;15.544;2022-12-18T01:48:37;97601.63;;;-11.92;nan
72636;BME280;60679;48.888;15.544;2022-12-18T01:51:04;97604.00;;;-12.10;nan
72636;BME280;60679;48.888;15.544;2022-12-18T01:53:31;97608.84;;;-12.24;nan
72636;BME280;60679;48.888;15.544;2022-12-18T01:55:57;97609.97;;;-12.31;nan
72636;BME280;60679;48.888;15.544;2022-12-18T01:58:32;97608.06;;;-12.26;nan
72636;BME280;60679;48.888;15.544;2022-12-18T02:00:57;97610.44;;;-12.20;nan
72636;BME280;60679;48.888;15.544;2022-12-18T02:03:23;97614.41;;;-12.10;nan
72636;BME280;60679;48.888;15.544;2022-12-18T02:06:23;97619.28;;;-12.00;nan
72636;BME280;60679;48.888;15.544;2022-12-18T02:16:36;97629.41;;;-11.92;nan
72636;BME280;60679;48.888;15.544;2022-12-18T02:19:33;97627.09;;;-12.00;nan
72636;BME280;60679;48.888;15.544;2022-12-18T02:22:24;97630.00;;;-12.09;nan
72636;BME280;60679;48.888;15.544;2022-12-18T02:27:22;97628.19;;;-12.31;nan
72636;BME280;60679;48.888;15.544;2022-12-18T02:29:51;97628.28;;;-12.35;nan
72636;BME280;60679;48.888;15.544;2022-12-18T02:32:22;97631.84;;;-12.37;nan
72636;BME280;60679;48.888;15.544;2022-12-18T02:34:50;97644.47;;;-12.26;nan
72636;BME280;60679;48.888;15.544;2022-12-18T02:37:18;97639.81;;;-12.17;nan
72636;BME280;60679;48.888;15.544;2022-12-18T02:39:46;97640.91;;;-12.24;nan
72636;BME280;60679;48.888;15.544;2022-12-18T02:42:12;97632.59;;;-12.33;nan
72636;BME280;60679;48.888;15.544;2022-12-18T02:44:48;97638.94;;;-12.42;nan
72636;BME280;60679;48.888;15.544;2022-12-18T02:47:17;97635.59;;;-12.46;nan
72636;BME280;60679;48.888;15.544;2022-12-18T02:52:41;97643.66;;;-12.53;nan
72636;BME280;60679;48.888;15.544;2022-12-18T02:55:28;97640.50;;;-12.63;nan
72636;BME280;60679;48.888;15.544;2022-12-18T03:00:58;97642.97;;;-12.86;nan
72636;BME280;60679;48.888;15.544;2022-12-18T03:03:33;97642.03;;;-12.83;nan
72636;BME280;60679;48.888;15.544;2022-12-18T03:06:06;97649.22;;;-12.92;nan
72636;BME280;60679;48.888;15.544;2022-12-18T03:08:38;97654.66;;;-12.99;nan
72636;BME280;60679;48.888;15.544;2022-12-18T03:11:10;97655.50;;;-12.99;nan
72636;BME280;60679;48.888;15.544;2022-12-18T03:13:40;97649.41;;;-12.98;nan
72636;BME280;60679;48.888;15.544;2022-12-18T03:16:11;97644.19;;;-12.96;nan
72636;BME280;60679;48.888;15.544;2022-12-18T03:18:46;97643.50;;;-13.03;nan
72636;BME280;60679;48.888;15.544;2022-12-18T03:21:13;97640.13;;;-13.05;nan
72636;BME280;60679;48.888;15.544;2022-12-18T03:23:44;97642.66;;;-13.03;nan
72636;BME280;60679;48.888;15.544;2022-12-18T03:26:15;97644.50;;;-13.07;nan
72636;BME280;60679;48.888;15.544;2022-12-18T03:28:46;97649.25;;;-13.19;nan
72636;BME280;60679;48.888;15.544;2022-12-18T03:31:14;97653.06;;;-13.31;nan
72636;BME280;60679;48.888;15.544;2022-12-18T03:33:43;97659.28;;;-13.36;nan
72636;BME280;60679;48.888;15.544;2022-12-18T03:36:11;97659.13;;;-13.32;nan
72636;BME280;60679;48.888;15.544;2022-12-18T03:38:37;97662.47;;;-13.27;nan
72636;BME280;60679;48.888;15.544;2022-12-18T03:46:53;97661.69;;;-13.03;nan
72636;BME280;60679;48.888;15.544;2022-12-18T03:49:31;97663.31;;;-12.99;nan
72636;BME280;60679;48.888;15.544;2022-12-18T03:55:18;97672.09;;;-13.03;nan
72636;BME280;60679;48.888;15.544;2022-12-18T03:57:45;97663.31;;;-12.99;nan
72636;BME280;60679;48.888;15.544;2022-12-18T04:00:14;97671.81;;;-12.94;nan
72636;BME280;60679;48.888;15.544;2022-12-18T04:02:44;97675.16;;;-12.90;nan
72636;BME280;60679;48.888;15.544;2022-12-18T04:05:11;97673.41;;;-12.89;nan
72636;BME280;60679;48.888;15.544;2022-12-18T04:07:38;97673.53;;;-12.93;nan
72636;BME280;60679;48.888;15.544;2022-12-18T04:10:06;97673.53;;;-12.93;nan
72636;BME280;60679;48.888;15.544;2022-12-18T04:12:32;97686.78;;;-13.02;nan
72636;BME280;60679;48.888;15.544;2022-12-18T04:14:57;97680.69;;;-13.01;nan
72636;BME280;60679;48.888;15.544;2022-12-18T04:17:23;97679.59;;;-12.94;nan
72636;BME280;60679;48.888;15.544;2022-12-18T04:19:48;97682.13;;;-12.90;nan
72636;BME280;60679;48.888;15.544;2022-12-18T04:22:14;97682.19;;;-12.94;nan
72636;BME280;60679;48.888;15.544;2022-12-18T04:24:39;97681.31;;;-12.93;nan
72636;BME280;60679;48.888;15.544;2022-12-18T04:27:05;97681.16;;;-12.88;nan
72636;BME280;60679;48.888;15.544;2022-12-18T04:29:30;97680.97;;;-12.82;nan
72636;BME280;60679;48.888;15.544;2022-12-18T04:31:56;97676.41;;;-12.75;nan
72636;BME280;60679;48.888;15.544;2022-12-18T04:34:21;97681.34;;;-12.66;nan
72636;BME280;60679;48.888;15.544;2022-12-18T04:36:47;97684.53;;;-12.58;nan
72636;BME280;60679;48.888;15.544;2022-12-18T04:39:13;97686.91;;;-12.51;nan
72636;BME280;60679;48.888;15.544;2022-12-18T04:41:39;97687.59;;;-12.46;nan
72636;BME280;60679;48.888;15.544;2022-12-18T04:44:04;97688.31;;;-12.41;nan
72636;BME280;60679;48.888;15.544;2022-12-18T04:46:30;97688.09;;;-12.35;nan
72636;BME280;60679;48.888;15.544;2022-12-18T04:48:55;97696.59;;;-12.29;nan
72636;BME280;60679;48.888;15.544;2022-12-18T04:51:21;97695.81;;;-12.31;nan
72636;BME280;60679;48.888;15.544;2022-12-18T04:53:47;97705.38;;;-12.32;nan
72636;BME280;60679;48.888;15.544;2022-12-18T04:56:14;97707.19;;;-12.34;nan
72636;BME280;60679;48.888;15.544;2022-12-18T04:58:41;97706.31;;;-12.35;nan
72636;BME280;60679;48.888;15.544;2022-12-18T05:01:08;97710.63;;;-12.33;nan
72636;BME280;60679;48.888;15.544;2022-12-18T05:03:34;97710.56;;;-12.32;nan
72636;BME280;60679;48.888;15.544;2022-12-18T05:06:00;97712.28;;;-12.31;nan
72636;BME280;60679;48.888;15.544;2022-12-18T05:08:26;97716.53;;;-12.28;nan
72636;BME280;60679;48.888;15.544;2022-12-18T05:11:03;97714.69;;;-12.25;nan
72636;BME280;60679;48.888;15.544;2022-12-18T05:13:29;97727.69;;;-12.25;nan
72636;BME280;60679;48.888;15.544;2022-12-18T05:15:55;97724.34;;;-12.28;nan
72636;BME280;60679;48.888;15.544;2022-12-18T05:18:22;97724.59;;;-12.36;nan
72636;BME280;60679;48.888;15.544;2022-12-18T05:20:49;97719.69;;;-12.47;nan
72636;BME280;60679;48.888;15.544;2022-12-18T05:23:15;97723.34;;;-12.52;nan
72636;BME280;60679;48.888;15.544;2022-12-18T05:25:40;97729.56;;;-12.56;nan
72636;BME280;60679;48.888;15.544;2022-12-18T05:28:05;97720.81;;;-12.54;nan
72636;BME280;60679;48.888;15.544;2022-12-18T05:30:31;97722.56;;;-12.54;nan
72636;BME280;60679;48.888;15.544;2022-12-18T05:32:56;97719.91;;;-12.53;nan
72636;BME280;60679;48.888;15.544;2022-12-18T05:35:21;97714.59;;;-12.50;nan
72636;BME280;60679;48.888;15.544;2022-12-18T05:37:47;97722.38;;;-12.48;nan
72636;BME280;60679;48.888;15.544;2022-12-18T05:40:12;97726.00;;;-12.54;nan
72636;BME280;60679;48.888;15.544;2022-12-18T05:42:38;97727.78;;;-12.56;nan
72636;BME280;60679;48.888;15.544;2022-12-18T05:45:05;97724.31;;;-12.55;nan
72636;BME280;60679;48.888;15.544;2022-12-18T05:47:30;97740.75;;;-12.54;nan
72636;BME280;60679;48.888;15.544;2022-12-18T05:49:56;97738.31;;;-12.59;nan
72636;BME280;60679;48.888;15.544;2022-12-18T05:52:21;97747.69;;;-12.55;nan
72636;BME280;60679;48.888;15.544;2022-12-18T05:54:46;97760.59;;;-12.50;nan
72636;BME280;60679;48.888;15.544;2022-12-18T05:57:12;97750.03;;;-12.46;nan
72636;BME280;60679;48.888;15.544;2022-12-18T05:59:37;97755.13;;;-12.43;nan
72636;BME280;60679;48.888;15.544;2022-12-18T06:02:03;97760.47;;;-12.47;nan
72636;BME280;60679;48.888;15.544;2022-12-18T06:04:31;97760.69;;;-12.53;nan
72636;BME280;60679;48.888;15.544;2022-12-18T06:06:56;97768.47;;;-12.53;nan
72636;BME280;60679;48.888;15.544;2022-12-18T06:09:22;97779.94;;;-12.60;nan
72636;BME280;60679;48.888;15.544;2022-12-18T06:11:47;97770.25;;;-12.55;nan
72636;BME280;60679;48.888;15.544;2022-12-18T06:14:13;97768.47;;;-12.53;nan
72636;BME280;60679;48.888;15.544;2022-12-18T06:16:38;97777.00;;;-12.50;nan
72636;BME280;60679;48.888;15.544;2022-12-18T06:19:05;97770.06;;;-12.49;nan
72636;BME280;60679;48.888;15.544;2022-12-18T06:21:31;97781.38;;;-12.50;nan
72636;BME280;60679;48.888;15.544;2022-12-18T06:23:57;97790.84;;;-12.48;nan
72636;BME280;60679;48.888;15.544;2022-12-18T06:26:22;97795.03;;;-12.44;nan
72636;BME280;60679;48.888;15.544;2022-12-18T06:28:48;97802.72;;;-12.39;nan
72636;BME280;60679;48.888;15.544;2022-12-18T06:31:13;97795.56;;;-12.32;nan
72636;BME280;60679;48.888;15.544;2022-12-18T06:33:39;97793.63;;;-12.26;nan
72636;BME280;60679;48.888;15.544;2022-12-18T06:36:08;97798.66;;;-12.21;nan
72636;BME280;60679;48.888;15.544;2022-12-18T06:38:35;97807.06;;;-12.13;nan
72636;BME280;60679;48.888;15.544;2022-12-18T06:41:16;97808.66;;;-12.08;nan
72636;BME280;60679;48.888;15.544;2022-12-18T06:43:42;97815.38;;;-12.01;nan
72636;BME280;60679;48.888;15.544;2022-12-18T06:46:08;97816.06;;;-11.96;nan
72636;BME280;60679;48.888;15.544;2022-12-18T06:48:34;97821.22;;;-11.94;nan
72636;BME280;60679;48.888;15.544;2022-12-18T06:50:59;97828.84;;;-11.88;nan
72636;BME280;60679;48.888;15.544;2022-12-18T06:53:25;97831.28;;;-11.84;nan
72636;BME280;60679;48.888;15.544;2022-12-18T06:55:50;97835.44;;;-11.78;nan
72636;BME280;60679;48.888;15.544;2022-12-18T06:58:16;97845.66;;;-11.72;nan
72636;BME280;60679;48.888;15.544;2022-12-18T07:00:59;97838.41;;;-11.64;nan
72636;BME280;60679;48.888;15.544;2022-12-18T07:03:24;97838.97;;;-11.54;nan
72636;BME280;60679;48.888;15.544;2022-12-18T07:05:50;97830.09;;;-11.49;nan
72636;BME280;60679;48.888;15.544;2022-12-18T07:08:15;97836.88;;;-11.43;nan
72636;BME280;60679;48.888;15.544;2022-12-18T07:10:42;97848.00;;;-11.40;nan
72636;BME280;60679;48.888;15.544;2022-12-18T07:13:07;97856.44;;;-11.32;nan
72636;BME280;60679;48.888;15.544;2022-12-18T07:15:33;97847.56;;;-11.26;nan
72636;BME280;60679;48.888;15.544;2022-12-18T07:17:58;97859.25;;;-11.13;nan
72636;BME280;60679;48.888;15.544;2022-12-18T07:20:23;97864.84;;;-10.99;nan
72636;BME280;60679;48.888;15.544;2022-12-18T07:22:49;97872.94;;;-10.82;nan
72636;BME280;60679;48.888;15.544;2022-12-18T07:25:14;97876.03;;;-10.72;nan
72636;BME280;60679;48.888;15.544;2022-12-18T07:27:39;97879.19;;;-10.63;nan
72636;BME280;60679;48.888;15.544;2022-12-18T07:30:05;97883.84;;;-10.47;nan
72636;BME280;60679;48.888;15.544;2022-12-18T07:32:31;97880.88;;;-10.38;nan
72636;BME280;60679;48.888;15.544;2022-12-18T07:34:56;97879.53;;;-10.25;nan
72636;BME280;60679;48.888;15.544;2022-12-18T07:37:21;97889.75;;;-10.19;nan
72636;BME280;60679;48.888;15.544;2022-12-18T07:39:47;97891.16;;;-10.12;nan
72636;BME280;60679;48.888;15.544;2022-12-18T07:42:12;97890.81;;;-10.03;nan
72636;BME280;60679;48.888;15.544;2022-12-18T07:44:56;97897.28;;;-9.90;nan
72636;BME280;60679;48.888;15.544;2022-12-18T07:47:21;97899.50;;;-9.79;nan
72636;BME280;60679;48.888;15.544;2022-12-18T07:49:47;97894.50;;;-9.64;nan
72636;BME280;60679;48.888;15.544;2022-12-18T07:52:12;97892.31;;;-9.53;nan
72636;BME280;60679;48.888;15.544;2022-12-18T07:54:38;97894.34;;;-9.39;nan
72636;BME280;60679;48.888;15.544;2022-12-18T07:57:04;97893.13;;;-9.30;nan
72636;BME280;60679;48.888;15.544;2022-12-18T07:59:29;97898.84;;;-9.21;nan
72636;BME280;60679;48.888;15.544;2022-12-18T08:01:54;97890.53;;;-9.10;nan
72636;BME280;60679;48.888;15.544;2022-12-18T08:04:20;97885.78;;;-9.01;nan
72636;BME280;60679;48.888;15.544;2022-12-18T08:06:45;97888.00;;;-8.92;nan
72636;BME280;60679;48.888;15.544;2022-12-18T08:09:11;97885.59;;;-8.76;nan
72636;BME280;60679;48.888;15.544;2022-12-18T08:11:36;97880.72;;;-8.65;nan
72636;BME280;60679;48.888;15.544;2022-12-18T08:14:02;97878.22;;;-8.48;nan
72636;BME280;60679;48.888;15.544;2022-12-18T08:16:28;97883.75;;;-8.35;nan
72636;BME280;60679;48.888;15.544;2022-12-18T08:18:53;97888.72;;;-8.29;nan
72636;BME280;60679;48.888;15.544;2022-12-18T08:21:22;97876.81;;;-8.18;nan
72636;BME280;60679;48.888;15.544;2022-12-18T08:23:49;97888.59;;;-8.07;nan
72636;BME280;60679;48.888;15.544;2022-12-18T08:26:15;97893.47;;;-8.00;nan
72636;BME280;60679;48.888;15.544;2022-12-18T08:28:41;97905.19;;;-7.90;nan
72636;BME280;60679;48.888;15.544;2022-12-18T08:31:07;97908.63;;;-7.88;nan
72636;BME280;60679;48.888;15.544;2022-12-18T08:33:34;97912.72;;;-7.82;nan
72636;BME280;60679;48.888;15.544;2022-12-18T08:36:01;97906.13;;;-7.72;nan
72636;BME280;60679;48.888;15.544;2022-12-18T08:38:27;97910.81;;;-7.60;nan
72636;BME280;60679;48.888;15.544;2022-12-18T08:41:06;97908.22;;;-7.43;nan
72636;BME280;60679;48.888;15.544;2022-12-18T08:43:32;97913.66;;;-7.29;nan
72636;BME280;60679;48.888;15.544;2022-12-18T08:46:17;97912.97;;;-7.15;nan
72636;BME280;60679;48.888;15.544;2022-12-18T08:48:42;97916.16;;;-7.09;nan
72636;BME280;60679;48.888;15.544;2022-12-18T08:51:08;97923.56;;;-6.99;nan
72636;BME280;60679;48.888;15.544;2022-12-18T08:53:35;97915.69;;;-6.99;nan
72636;BME280;60679;48.888;15.544;2022-12-18T08:56:01;97903.66;;;-6.86;nan
72636;BME280;60679;48.888;15.544;2022-12-18T08:58:26;97904.03;;;-6.77;nan
72636;BME280;60679;48.888;15.544;2022-12-18T09:00:52;97907.97;;;-6.68;nan
72636;BME280;60679;48.888;15.544;2022-12-18T09:03:18;97903.88;;;-6.74;nan
72636;BME280;60679;48.888;15.544;2022-12-18T09:05:46;97915.53;;;-6.62;nan
72636;BME280;60679;48.888;15.544;2022-12-18T09:08:12;97914.94;;;-6.50;nan
72636;BME280;60679;48.888;15.544;2022-12-18T09:10:44;97929.59;;;-6.46;nan
72636;BME280;60679;48.888;15.544;2022-12-18T09:13:11;97922.09;;;-6.36;nan
72636;BME280;60679;48.888;15.544;2022-12-18T09:15:41;97921.06;;;-6.17;nan
72636;BME280;60679;48.888;15.544;2022-12-18T09:18:07;97923.03;;;-6.05;nan
72636;BME280;60679;48.888;15.544;2022-12-18T09:20:32;97918.47;;;-6.01;nan
72636;BME280;60679;48.888;15.544;2022-12-18T09:22:58;97920.06;;;-5.83;nan
72636;BME280;60679;48.888;15.544;2022-12-18T09:25:23;97910.25;;;-5.64;nan
72636;BME280;60679;48.888;15.544;2022-12-18T09:27:48;97909.69;;;-5.53;nan
72636;BME280;60679;48.888;15.544;2022-12-18T09:30:14;97904.16;;;-5.49;nan
72636;BME280;60679;48.888;15.544;2022-12-18T09:32:39;97908.63;;;-5.35;nan
72636;BME280;60679;48.888;15.544;2022-12-18T09:35:04;97910.06;;;-5.14;nan
72636;BME280;60679;48.888;15.544;2022-12-18T09:37:30;97905.78;;;-5.01;nan
72636;BME280;60679;48.888;15.544;2022-12-18T09:39:56;97906.19;;;-4.93;nan
72636;BME280;60679;48.888;15.544;2022-12-18T09:42:22;97910.59;;;-4.78;nan
72636;BME280;60679;48.888;15.544;2022-12-18T09:44:50;97911.56;;;-4.64;nan
72636;BME280;60679;48.888;15.544;2022-12-18T09:47:27;97906.88;;;-4.45;nan
72636;BME280;60679;48.888;15.544;2022-12-18T09:50:03;97900.31;;;-4.38;nan
72636;BME280;60679;48.888;15.544;2022-12-18T09:52:39;97909.47;;;-4.30;nan
72636;BME280;60679;48.888;15.544;2022-12-18T09:55:22;97898.81;;;-4.14;nan
72636;BME280;60679;48.888;15.544;2022-12-18T09:57:54;97889.50;;;-4.05;nan
72636;BME280;60679;48.888;15.544;2022-12-18T10:00:23;97891.66;;;-3.84;nan
72636;BME280;60679;48.888;15.544;2022-12-18T10:02:51;97889.84;;;-3.69;nan
72636;BME280;60679;48.888;15.544;2022-12-18T10:05:33;97896.00;;;-3.69;nan
72636;BME280;60679;48.888;15.544;2022-12-18T10:08:05;97885.53;;;-3.56;nan
72636;BME280;60679;48.888;15.544;2022-12-18T10:11:01;97892.94;;;-3.48;nan
72636;BME280;60679;48.888;15.544;2022-12-18T10:13:42;97888.56;;;-3.35;nan
72636;BME280;60679;48.888;15.544;2022-12-18T10:16:43;97886.47;;;-3.16;nan
72636;BME280;60679;48.888;15.544;2022-12-18T10:24:53;97890.13;;;-2.92;nan
72636;BME280;60679;48.888;15.544;2022-12-18T10:27:25;97876.44;;;-2.72;nan
72636;BME280;60679;48.888;15.544;2022-12-18T10:29:52;97875.91;;;-2.64;nan
72636;BME280;60679;48.888;15.544;2022-12-18T10:32:27;97876.56;;;-2.61;nan
72636;BME280;60679;48.888;15.544;2022-12-18T10:34:55;97874.06;;;-2.50;nan
72636;BME280;60679;48.888;15.544;2022-12-18T10:37:24;97873.63;;;-2.44;nan
72636;BME280;60679;48.888;15.544;2022-12-18T10:40:13;97874.78;;;-2.48;nan
72636;BME280;60679;48.888;15.544;2022-12-18T10:42:39;97877.75;;;-2.40;nan
72636;BME280;60679;48.888;15.544;2022-12-18T10:45:12;97869.19;;;-2.30;nan
72636;BME280;60679;48.888;15.544;2022-12-18T10:47:56;97877.97;;;-2.30;nan
72636;BME280;60679;48.888;15.544;2022-12-18T10:50:36;97886.34;;;-2.23;nan
72636;BME280;60679;48.888;15.544;2022-12-18T10:53:04;97882.44;;;-2.18;nan
72636;BME280;60679;48.888;15.544;2022-12-18T10:55:34;97884.22;;;-2.18;nan
72636;BME280;60679;48.888;15.544;2022-12-18T11:03:32;97883.38;;;-2.44;nan
72636;BME280;60679;48.888;15.544;2022-12-18T11:08:32;97871.09;;;-2.33;nan
72636;BME280;60679;48.888;15.544;2022-12-18T11:10:57;97870.47;;;-2.36;nan
72636;BME280;60679;48.888;15.544;2022-12-18T11:13:25;97875.31;;;-2.43;nan
72636;BME280;60679;48.888;15.544;2022-12-18T11:15:52;97872.06;;;-2.46;nan
72636;BME280;60679;48.888;15.544;2022-12-18T11:23:26;97851.47;;;-2.68;nan
72636;BME280;60679;48.888;15.544;2022-12-18T11:25:57;97851.69;;;-2.71;nan
72636;BME280;60679;48.888;15.544;2022-12-18T11:28:39;97850.53;;;-2.67;nan
72636;BME280;60679;48.888;15.544;2022-12-18T11:31:19;97842.50;;;-2.78;nan
72636;BME280;60679;48.888;15.544;2022-12-18T11:36:29;97833.84;;;-2.80;nan
72636;BME280;60679;48.888;15.544;2022-12-18T11:38:57;97837.22;;;-2.78;nan
72636;BME280;60679;48.888;15.544;2022-12-18T11:44:52;97826.13;;;-2.58;nan
72636;BME280;60679;48.888;15.544;2022-12-18T11:47:31;97826.47;;;-2.50;nan
72636;BME280;60679;48.888;15.544;2022-12-18T11:50:03;97827.50;;;-2.40;nan
72636;BME280;60679;48.888;15.544;2022-12-18T11:52:35;97823.41;;;-2.44;nan
72636;BME280;60679;48.888;15.544;2022-12-18T11:55:15;97826.66;;;-2.53;nan
72636;BME280;60679;48.888;15.544;2022-12-18T12:00:22;97822.19;;;-2.65;nan
72636;BME280;60679;48.888;15.544;2022-12-18T12:11:26;97822.78;;;-2.99;nan
72636;BME280;60679;48.888;15.544;2022-12-18T12:16:59;97824.47;;;-2.98;nan
72636;BME280;60679;48.888;15.544;2022-12-18T12:19:39;97826.06;;;-3.08;nan
72636;BME280;60679;48.888;15.544;2022-12-18T12:30:20;97830.09;;;-3.29;nan
72636;BME280;60679;48.888;15.544;2022-12-18T12:35:44;97835.75;;;-3.35;nan
72636;BME280;60679;48.888;15.544;2022-12-18T12:40:57;97832.13;;;-3.47;nan
72636;BME280;60679;48.888;15.544;2022-12-18T12:43:35;97844.78;;;-3.52;nan
72636;BME280;60679;48.888;15.544;2022-12-18T12:46:07;97844.31;;;-3.44;nan
72636;BME280;60679;48.888;15.544;2022-12-18T12:48:47;97843.00;;;-3.52;nan
72636;BME280;60679;48.888;15.544;2022-12-18T12:51:21;97841.78;;;-3.60;nan
72636;BME280;60679;48.888;15.544;2022-12-18T12:53:48;97852.06;;;-3.70;nan
72636;BME280;60679;48.888;15.544;2022-12-18T12:56:16;97836.84;;;-3.79;nan
72636;BME280;60679;48.888;15.544;2022-12-18T13:01:25;97848.16;;;-3.91;nan
72636;BME280;60679;48.888;15.544;2022-12-18T13:09:22;97842.22;;;-4.09;nan
72636;BME280;60679;48.888;15.544;2022-12-18T13:11:47;97839.69;;;-4.10;nan
72636;BME280;60679;48.888;15.544;2022-12-18T13:14:38;97849.41;;;-4.11;nan
72636;BME280;60679;48.888;15.544;2022-12-18T13:19:56;97865.31;;;-4.26;nan
72636;BME280;60679;48.888;15.544;2022-12-18T13:22:45;97871.41;;;-4.40;nan
72636;BME280;60679;48.888;15.544;2022-12-18T13:25:37;97872.81;;;-4.48;nan
72636;BME280;60679;48.888;15.544;2022-12-18T13:28:14;97875.41;;;-4.62;nan
72636;BME280;60679;48.888;15.544;2022-12-18T13:30:51;97877.19;;;-4.77;nan
72636;BME280;60679;48.888;15.544;2022-12-18T13:43:33;97873.34;;;-5.01;nan
72636;BME280;60679;48.888;15.544;2022-12-18T13:49:00;97872.09;;;-5.10;nan
72636;BME280;60679;48.888;15.544;2022-12-18T13:51:28;97878.38;;;-5.12;nan
72636;BME280;60679;48.888;15.544;2022-12-18T13:54:04;97877.22;;;-5.22;nan
72636;BME280;60679;48.888;15.544;2022-12-18T13:56:33;97885.00;;;-5.21;nan
72636;BME280;60679;48.888;15.544;2022-12-18T13:59:55;97894.03;;;-5.25;nan
72636;BME280;60679;48.888;15.544;2022-12-18T14:01:57;97895.88;;;-5.27;nan
72636;BME280;60679;48.888;15.544;2022-12-18T14:04:34;97881.63;;;-5.39;nan
72636;BME280;60679;48.888;15.544;2022-12-18T14:07:15;97884.81;;;-5.48;nan
72636;BME280;60679;48.888;15.544;2022-12-18T14:10:02;97896.59;;;-5.55;nan
72636;BME280;60679;48.888;15.544;2022-12-18T14:12:30;97892.34;;;-5.57;nan
72636;BME280;60679;48.888;15.544;2022-12-18T14:18:02;97893.13;;;-5.71;nan
72636;BME280;60679;48.888;15.544;2022-12-18T14:20:31;97902.34;;;-5.79;nan
72636;BME280;60679;48.888;15.544;2022-12-18T14:22:58;97894.28;;;-5.92;nan
72636;BME280;60679;48.888;15.544;2022-12-18T14:25:27;97889.72;;;-6.04;nan
72636;BME280;60679;48.888;15.544;2022-12-18T14:28:12;97899.16;;;-6.17;nan
72636;BME280;60679;48.888;15.544;2022-12-18T14:30:40;97890.09;;;-6.27;nan
72636;BME280;60679;48.888;15.544;2022-12-18T14:35:33;97903.31;;;-6.46;nan
72636;BME280;60679;48.888;15.544;2022-12-18T14:38:19;97901.09;;;-6.54;nan
72636;BME280;60679;48.888;15.544;2022-12-18T14:40:46;97901.34;;;-6.58;nan
72636;BME280;60679;48.888;15.544;2022-12-18T14:43:12;97908.44;;;-6.60;nan
72636;BME280;60679;48.888;15.544;2022-12-18T14:48:16;97911.09;;;-6.77;nan
72636;BME280;60679;48.888;15.544;2022-12-18T14:50:43;97910.38;;;-6.81;nan
72636;BME280;60679;48.888;15.544;2022-12-18T14:53:23;97909.94;;;-6.89;nan
72636;BME280;60679;48.888;15.544;2022-12-18T14:55:53;97909.38;;;-6.95;nan
72636;BME280;60679;48.888;15.544;2022-12-18T14:58:19;97908.47;;;-6.94;nan
72636;BME280;60679;48.888;15.544;2022-12-18T15:00:44;97903.28;;;-6.96;nan
72636;BME280;60679;48.888;15.544;2022-12-18T15:03:10;97907.66;;;-6.96;nan
72636;BME280;60679;48.888;15.544;2022-12-18T15:05:35;97906.75;;;-6.95;nan
72636;BME280;60679;48.888;15.544;2022-12-18T15:08:01;97915.69;;;-6.99;nan